createdAt,value
2022-11-10T00:02:38.605Z,12.10
2022-11-10T00:05:24.478Z,12.10
2022-11-10T00:08:12.610Z,12.00
2022-11-10T00:10:59.066Z,12.00
2022-11-10T00:14:07.406Z,12.10
2022-11-10T00:17:04.372Z,12.10
2022-11-10T00:19:50.383Z,12.00
2022-11-10T00:22:37.751Z,12.00
2022-11-10T00:25:25.162Z,12.00
2022-11-10T00:28:10.646Z,11.90
2022-11-10T00:30:56.402Z,12.00
2022-11-10T00:33:44.581Z,12.00
2022-11-10T00:36:30.434Z,12.00
2022-11-10T00:39:16.012Z,11.90
2022-11-10T00:42:01.441Z,11.90
2022-11-10T00:44:46.899Z,11.90
2022-11-10T00:47:32.529Z,11.90
2022-11-10T00:50:18.126Z,11.90
2022-11-10T00:53:03.965Z,11.80
2022-11-10T00:55:49.647Z,11.80
2022-11-10T00:58:35.097Z,11.80
2022-11-10T01:01:24.431Z,11.80
2022-11-10T01:04:10.155Z,11.70
2022-11-10T01:06:55.539Z,11.70
2022-11-10T01:09:41.555Z,11.70
2022-11-10T01:12:30.876Z,11.70
2022-11-10T01:15:16.599Z,11.60
2022-11-10T01:18:02.181Z,11.60
2022-11-10T01:20:52.544Z,11.60
2022-11-10T01:23:38.196Z,11.60
2022-11-10T01:26:24.775Z,11.60
2022-11-10T01:29:10.261Z,11.60
2022-11-10T01:31:55.745Z,11.50
2022-11-10T01:34:41.233Z,11.50
2022-11-10T01:37:27.269Z,11.50
2022-11-10T01:40:13.959Z,11.50
2022-11-10T01:42:59.956Z,11.50
2022-11-10T01:46:13.306Z,11.40
2022-11-10T01:49:02.480Z,11.40
2022-11-10T01:51:57.719Z,11.40
2022-11-10T01:54:47.158Z,11.30
2022-11-10T01:57:33.145Z,11.30
2022-11-10T02:00:20.160Z,11.40
2022-11-10T02:03:40.179Z,11.40
2022-11-10T02:06:30.933Z,11.30
2022-11-10T02:09:18.204Z,11.30
2022-11-10T02:12:04.326Z,11.20
2022-11-10T02:14:49.935Z,11.30
2022-11-10T02:17:35.685Z,11.30
2022-11-10T02:20:22.366Z,11.20
2022-11-10T02:23:36.932Z,11.20
2022-11-10T02:26:26.578Z,11.10
2022-11-10T02:29:12.544Z,11.10
2022-11-10T02:31:58.219Z,11.00
2022-11-10T02:34:43.922Z,11.00
2022-11-10T02:37:29.380Z,11.00
2022-11-10T02:40:14.944Z,11.00
2022-11-10T02:43:00.419Z,11.00
2022-11-10T02:45:46.241Z,11.00
2022-11-10T02:48:31.885Z,11.00
2022-11-10T02:51:17.689Z,10.90
2022-11-10T02:54:03.374Z,10.90
2022-11-10T02:56:48.957Z,10.90
2022-11-10T02:59:34.545Z,10.90
2022-11-10T03:02:19.940Z,10.80
2022-11-10T03:05:05.825Z,10.80
2022-11-10T03:07:57.571Z,10.70
2022-11-10T03:10:43.003Z,10.60
2022-11-10T03:13:40.198Z,10.60
2022-11-10T03:16:34.171Z,10.60
2022-11-10T03:19:19.608Z,10.50
2022-11-10T03:22:05.313Z,10.50
2022-11-10T03:24:50.995Z,10.50
2022-11-10T03:27:36.477Z,10.50
2022-11-10T03:30:22.061Z,10.50
2022-11-10T03:33:07.629Z,10.50
2022-11-10T03:35:53.213Z,10.50
2022-11-10T03:38:38.842Z,10.50
2022-11-10T03:41:24.287Z,10.50
2022-11-10T03:44:09.865Z,10.40
2022-11-10T03:46:55.557Z,10.40
2022-11-10T03:49:40.929Z,10.40
2022-11-10T03:52:26.295Z,10.40
2022-11-10T03:55:16.312Z,10.40
2022-11-10T03:58:03.413Z,10.40
2022-11-10T04:00:48.873Z,10.40
2022-11-10T04:03:34.458Z,10.40
2022-11-10T04:06:39.018Z,10.40
2022-11-10T04:09:25.003Z,10.40
2022-11-10T04:12:28.580Z,10.40
2022-11-10T04:15:32.898Z,10.40
2022-11-10T04:18:21.777Z,10.50
2022-11-10T04:21:07.341Z,10.50
2022-11-10T04:23:52.833Z,10.50
2022-11-10T04:26:38.996Z,10.50
2022-11-10T04:29:24.925Z,10.40
2022-11-10T04:32:10.187Z,10.50
2022-11-10T04:34:55.768Z,10.40
2022-11-10T04:37:41.237Z,10.40
2022-11-10T04:40:26.611Z,10.30
2022-11-10T04:43:12.138Z,10.30
2022-11-10T04:45:57.950Z,10.30
2022-11-10T04:48:43.604Z,10.20
2022-11-10T04:51:39.304Z,10.20
2022-11-10T04:54:25.080Z,10.20
2022-11-10T04:57:10.510Z,10.20
2022-11-10T04:59:55.949Z,10.30
2022-11-10T05:02:41.376Z,10.20
2022-11-10T05:05:27.322Z,10.20
2022-11-10T05:08:13.386Z,10.20
2022-11-10T05:10:59.108Z,10.20
2022-11-10T05:13:45.957Z,10.20
2022-11-10T05:16:31.428Z,10.10
2022-11-10T05:19:17.216Z,10.10
2022-11-10T05:22:02.735Z,10.10
2022-11-10T05:24:48.138Z,10.20
2022-11-10T05:27:33.704Z,10.20
2022-11-10T05:30:19.312Z,10.30
2022-11-10T05:33:05.678Z,10.40
2022-11-10T05:35:51.981Z,10.40
2022-11-10T05:38:42.940Z,10.40
2022-11-10T05:41:29.358Z,10.40
2022-11-10T05:44:15.280Z,10.40
2022-11-10T05:47:00.949Z,10.40
2022-11-10T05:49:46.447Z,10.40
2022-11-10T05:52:31.940Z,10.30
2022-11-10T05:55:20.686Z,10.20
2022-11-10T05:58:06.603Z,10.20
2022-11-10T06:00:52.214Z,10.10
2022-11-10T06:03:38.143Z,10.10
2022-11-10T06:06:24.114Z,10.00
2022-11-10T06:09:10.237Z,10.10
2022-11-10T06:11:55.620Z,10.10
2022-11-10T06:14:41.095Z,10.00
2022-11-10T06:17:26.696Z,10.10
2022-11-10T06:20:14.401Z,10.00
2022-11-10T06:23:06.670Z,10.00
2022-11-10T06:25:52.249Z,10.10
2022-11-10T06:28:37.641Z,10.10
2022-11-10T06:31:23.403Z,10.00
2022-11-10T06:34:09.329Z,10.00
2022-11-10T06:36:55.114Z,10.10
2022-11-10T06:39:40.586Z,10.10
2022-11-10T06:42:26.126Z,10.10
2022-11-10T06:45:11.499Z,10.10
2022-11-10T06:48:06.906Z,10.20
2022-11-10T06:50:52.758Z,10.30
2022-11-10T06:53:38.233Z,10.40
2022-11-10T06:56:23.557Z,10.40
2022-11-10T06:59:08.976Z,10.50
2022-11-10T07:01:54.257Z,10.50
2022-11-10T07:04:39.671Z,10.50
2022-11-10T07:07:25.043Z,10.50
2022-11-10T07:10:10.979Z,10.60
2022-11-10T07:13:02.316Z,10.60
2022-11-10T07:15:48.620Z,10.70
2022-11-10T07:18:36.003Z,10.80
2022-11-10T07:21:21.692Z,10.90
2022-11-10T07:24:07.779Z,10.90
2022-11-10T07:26:53.065Z,10.90
2022-11-10T07:29:39.846Z,11.00
2022-11-10T07:32:25.566Z,11.00
2022-11-10T07:35:11.029Z,11.10
2022-11-10T07:37:58.145Z,11.20
2022-11-10T07:40:43.470Z,11.20
2022-11-10T07:43:28.988Z,11.30
2022-11-10T07:46:15.671Z,11.40
2022-11-10T07:49:01.606Z,11.40
2022-11-10T07:51:47.113Z,11.50
2022-11-10T07:54:32.561Z,11.50
2022-11-10T07:57:18.452Z,11.60
2022-11-10T08:00:04.602Z,11.70
2022-11-10T08:02:51.053Z,11.60
2022-11-10T08:05:37.057Z,11.80
2022-11-10T08:08:22.615Z,11.80
2022-11-10T08:11:08.001Z,11.90
2022-11-10T08:13:53.483Z,11.90
2022-11-10T08:16:39.377Z,11.90
2022-11-10T08:19:25.256Z,12.10
2022-11-10T08:22:10.948Z,12.20
2022-11-10T08:24:56.693Z,12.30
2022-11-10T08:27:42.330Z,12.20
2022-11-10T08:30:28.740Z,12.10
2022-11-10T08:33:17.396Z,12.10
2022-11-10T08:36:03.180Z,12.20
2022-11-10T08:38:48.675Z,12.40
2022-11-10T08:41:34.060Z,12.40
2022-11-10T08:44:21.019Z,12.40
2022-11-10T08:47:06.905Z,12.40
2022-11-10T08:49:52.347Z,12.50
2022-11-10T08:52:37.673Z,12.50
2022-11-10T08:55:23.894Z,12.70
2022-11-10T08:58:14.477Z,12.70
2022-11-10T09:00:59.901Z,12.70
2022-11-10T09:03:45.363Z,12.80
2022-11-10T09:06:31.084Z,12.80
2022-11-10T09:09:16.892Z,12.90
2022-11-10T09:12:02.513Z,13.00
2022-11-10T09:14:48.079Z,13.20
2022-11-10T09:17:33.370Z,13.50
2022-11-10T09:23:13.505Z,13.70
2022-11-10T09:25:59.010Z,13.40
2022-11-10T09:28:44.462Z,13.20
2022-11-10T09:31:30.012Z,12.90
2022-11-10T09:34:15.350Z,12.70
2022-11-10T09:37:00.833Z,12.70
2022-11-10T09:39:46.205Z,12.70
2022-11-10T09:42:39.549Z,12.70
2022-11-10T09:45:37.813Z,12.90
2022-11-10T09:48:29.960Z,12.90
2022-11-10T09:51:36.288Z,12.90
2022-11-10T09:54:39.545Z,12.90
2022-11-10T09:57:26.883Z,13.00
2022-11-10T10:00:18.208Z,13.00
2022-11-10T10:03:06.240Z,13.10
2022-11-10T10:06:10.325Z,13.10
2022-11-10T10:09:27.442Z,13.20
2022-11-10T10:12:35.423Z,13.10
2022-11-10T10:15:46.859Z,13.20
2022-11-10T10:18:32.141Z,13.30
2022-11-10T10:21:33.372Z,13.30
2022-11-10T10:24:22.421Z,13.20
2022-11-10T10:27:18.678Z,13.30
2022-11-10T10:30:15.021Z,13.30
2022-11-10T10:33:20.067Z,13.60
2022-11-10T10:36:15.492Z,13.60
2022-11-10T10:39:11.122Z,13.60
2022-11-10T10:41:57.264Z,13.60
2022-11-10T10:45:16.599Z,13.50
2022-11-10T10:48:02.306Z,13.40
2022-11-10T10:50:49.157Z,13.60
2022-11-10T10:53:47.607Z,13.70
2022-11-10T10:56:33.819Z,13.90
2022-11-10T10:59:22.746Z,14.00
2022-11-10T11:02:40.833Z,14.40
2022-11-10T11:05:26.639Z,14.70
2022-11-10T11:08:19.267Z,14.80
2022-11-10T11:11:11.299Z,15.30
2022-11-10T11:14:24.560Z,16.20
2022-11-10T11:17:21.209Z,16.90
2022-11-10T11:20:14.340Z,16.90
2022-11-10T11:23:27.145Z,17.20
2022-11-10T11:26:24.034Z,17.40
2022-11-10T11:29:32.846Z,17.70
2022-11-10T11:32:45.913Z,18.70
2022-11-10T11:35:46.567Z,20.00
2022-11-10T11:38:44.265Z,21.00
2022-11-10T11:42:40.713Z,20.10
2022-11-10T11:46:12.564Z,20.80
2022-11-10T11:49:18.623Z,18.50
2022-11-10T11:52:27.449Z,16.60
2022-11-10T11:55:42.636Z,15.60
2022-11-10T11:58:51.231Z,17.10
2022-11-10T12:02:02.855Z,17.90
2022-11-10T12:05:13.284Z,18.50
2022-11-10T12:08:36.609Z,18.70
2022-11-10T12:11:43.115Z,18.60
2022-11-10T12:14:52.388Z,17.00
2022-11-10T12:18:07.351Z,18.80
2022-11-10T12:21:29.012Z,19.70
2022-11-10T12:24:52.522Z,19.10
2022-11-10T12:27:49.727Z,18.50
2022-11-10T12:30:37.454Z,19.50
2022-11-10T12:34:03.848Z,19.00
2022-11-10T12:36:50.828Z,17.90
2022-11-10T12:39:56.063Z,18.40
2022-11-10T12:42:44.256Z,19.30
2022-11-10T12:45:36.758Z,20.20
2022-11-10T12:48:24.534Z,20.80
2022-11-10T12:51:39.433Z,20.50
2022-11-10T12:54:28.962Z,19.90
2022-11-10T12:57:30.600Z,20.70
2022-11-10T13:00:28.833Z,19.40
2022-11-10T13:03:34.642Z,19.20
2022-11-10T13:06:29.108Z,20.70
2022-11-10T13:09:36.264Z,20.10
2022-11-10T13:12:24.502Z,21.00
2022-11-10T13:15:39.134Z,21.70
2022-11-10T13:18:44.975Z,22.60
2022-11-10T13:21:52.898Z,20.20
2022-11-10T13:24:42.567Z,19.10
2022-11-10T13:27:52.731Z,18.20
2022-11-10T13:30:45.552Z,18.10
2022-11-10T13:33:36.794Z,17.70
2022-11-10T13:36:48.845Z,17.10
2022-11-10T13:39:34.911Z,17.10
2022-11-10T13:42:25.061Z,18.50
2022-11-10T13:45:35.110Z,19.10
2022-11-10T13:48:57.481Z,18.00
2022-11-10T13:52:06.501Z,18.50
2022-11-10T13:55:20.389Z,19.70
2022-11-10T13:58:13.066Z,21.50
2022-11-10T14:01:26.141Z,20.00
2022-11-10T14:04:45.218Z,19.40
2022-11-10T14:07:39.797Z,19.30
2022-11-10T14:10:52.056Z,19.30
2022-11-10T14:14:00.811Z,18.20
2022-11-10T14:16:46.671Z,16.50
2022-11-10T14:19:40.306Z,16.60
2022-11-10T14:22:42.487Z,16.10
2022-11-10T14:25:40.024Z,15.70
2022-11-10T14:28:34.923Z,15.40
2022-11-10T14:31:25.306Z,15.10
2022-11-10T14:34:16.706Z,15.00
2022-11-10T14:37:03.886Z,14.80
2022-11-10T14:39:53.358Z,14.70
2022-11-10T14:42:39.757Z,14.50
2022-11-10T14:45:28.375Z,14.40
2022-11-10T14:48:22.008Z,14.00
2022-11-10T14:51:19.447Z,14.00
2022-11-10T14:54:07.284Z,13.80
2022-11-10T14:56:54.593Z,13.60
2022-11-10T14:59:40.691Z,13.60
2022-11-10T15:02:27.409Z,13.50
2022-11-10T15:05:15.732Z,13.40
2022-11-10T15:08:03.341Z,13.30
2022-11-10T15:10:53.179Z,13.20
2022-11-10T15:13:39.899Z,13.10
2022-11-10T15:16:32.726Z,13.00
2022-11-10T15:19:32.677Z,12.90
2022-11-10T15:22:21.696Z,12.90
2022-11-10T15:25:16.096Z,12.80
2022-11-10T15:28:26.891Z,12.70
2022-11-10T15:31:23.438Z,12.60
2022-11-10T15:34:41.702Z,12.60
2022-11-10T15:37:31.010Z,12.40
2022-11-10T15:40:36.646Z,12.40
2022-11-10T15:43:23.645Z,12.40
2022-11-10T15:46:18.604Z,12.30
2022-11-10T15:49:10.773Z,12.30
2022-11-10T15:52:06.964Z,12.20
2022-11-10T15:54:52.730Z,12.20
2022-11-10T15:57:38.449Z,12.20
2022-11-10T16:00:24.169Z,12.10
2022-11-10T16:03:15.570Z,12.20
2022-11-10T16:06:01.518Z,12.10
2022-11-10T16:08:47.344Z,12.00
2022-11-10T16:11:35.687Z,12.00
2022-11-10T16:14:21.210Z,11.90
2022-11-10T16:17:09.906Z,11.80
2022-11-10T16:19:57.033Z,11.80
2022-11-10T16:22:42.900Z,11.70
2022-11-10T16:25:28.799Z,11.70
2022-11-10T16:28:22.462Z,11.60
2022-11-10T16:31:11.652Z,11.50
2022-11-10T16:33:57.515Z,11.50
2022-11-10T16:36:46.093Z,11.50
2022-11-10T16:39:32.130Z,11.40
2022-11-10T16:42:18.107Z,11.40
2022-11-10T16:45:05.438Z,11.40
2022-11-10T16:47:53.394Z,11.30
2022-11-10T16:50:39.313Z,11.30
2022-11-10T16:53:28.373Z,11.30
2022-11-10T16:56:20.612Z,11.30
2022-11-10T16:59:06.602Z,11.30
2022-11-10T17:01:54.288Z,11.20
2022-11-10T17:04:40.288Z,11.10
2022-11-10T17:07:28.502Z,11.10
2022-11-10T17:10:20.058Z,11.10
2022-11-10T17:13:05.729Z,11.10
2022-11-10T17:15:56.042Z,11.10
2022-11-10T17:18:41.722Z,11.00
2022-11-10T17:21:32.638Z,11.00
2022-11-10T17:24:19.179Z,11.00
2022-11-10T17:27:05.264Z,10.90
2022-11-10T17:29:51.435Z,10.90
2022-11-10T17:33:03.019Z,10.90
2022-11-10T17:35:48.630Z,10.90
2022-11-10T17:38:34.310Z,10.80
2022-11-10T17:41:20.321Z,10.80
2022-11-10T17:44:15.241Z,10.70
2022-11-10T17:47:01.161Z,10.80
2022-11-10T17:49:46.607Z,10.70
2022-11-10T17:52:32.196Z,10.70
2022-11-10T17:55:28.514Z,10.70
2022-11-10T17:58:18.200Z,10.70
2022-11-10T18:01:18.898Z,10.60
2022-11-10T18:04:04.605Z,10.60
2022-11-10T18:06:50.254Z,10.60
2022-11-10T18:09:36.117Z,10.60
2022-11-10T18:12:26.768Z,10.60
2022-11-10T18:15:15.869Z,10.60
2022-11-10T18:18:01.680Z,10.60
2022-11-10T18:20:47.258Z,10.50
2022-11-10T18:23:33.428Z,10.50
2022-11-10T18:26:19.081Z,10.40
2022-11-10T18:29:04.667Z,10.40
2022-11-10T18:31:50.143Z,10.40
2022-11-10T18:34:35.447Z,10.40
2022-11-10T18:37:21.158Z,10.40
2022-11-10T18:40:08.005Z,10.40
2022-11-10T18:42:59.894Z,10.40
2022-11-10T18:45:53.822Z,10.40
2022-11-10T18:48:40.702Z,10.30
2022-11-10T18:51:26.604Z,10.30
2022-11-10T18:54:12.890Z,10.30
2022-11-10T18:56:58.568Z,10.40
2022-11-10T18:59:44.111Z,10.30
2022-11-10T19:02:29.570Z,10.30
2022-11-10T19:05:15.097Z,10.40
2022-11-10T19:08:00.625Z,10.40
2022-11-10T19:10:46.542Z,10.40
2022-11-10T19:13:32.147Z,10.40
2022-11-10T19:16:19.163Z,10.40
2022-11-10T19:19:05.075Z,10.40
2022-11-10T19:21:50.472Z,10.40
2022-11-10T19:24:53.744Z,10.50
2022-11-10T19:27:41.820Z,10.60
2022-11-10T19:30:27.363Z,10.40
2022-11-10T19:33:12.940Z,10.40
2022-11-10T19:36:19.077Z,10.40
2022-11-10T19:39:04.514Z,10.40
2022-11-10T19:41:50.863Z,10.40
2022-11-10T19:44:36.484Z,10.40
2022-11-10T19:47:22.127Z,10.40
2022-11-10T19:50:08.200Z,10.30
2022-11-10T19:52:54.050Z,10.30
2022-11-10T19:55:39.671Z,10.30
2022-11-10T19:58:28.656Z,10.30
2022-11-10T20:01:16.206Z,10.20
2022-11-10T20:04:02.956Z,10.10
2022-11-10T20:06:48.642Z,10.10
2022-11-10T20:09:34.421Z,10.10
2022-11-10T20:12:19.835Z,10.00
2022-11-10T20:15:09.045Z,10.10
2022-11-10T20:17:54.784Z,10.00
2022-11-10T20:20:41.115Z,10.00
2022-11-10T20:23:26.655Z,10.00
2022-11-10T20:26:17.527Z,10.00
2022-11-10T20:29:02.978Z,10.00
2022-11-10T20:31:48.854Z,9.80
2022-11-10T20:34:34.368Z,9.80
2022-11-10T20:37:20.014Z,9.70
2022-11-10T20:40:30.089Z,9.60
2022-11-10T20:43:14.944Z,9.50
2022-11-10T20:46:00.899Z,9.30
2022-11-10T20:48:47.496Z,9.30
2022-11-10T20:51:33.137Z,9.30
2022-11-10T20:54:18.804Z,9.30
2022-11-10T20:57:04.445Z,9.20
2022-11-10T20:59:49.862Z,9.10
2022-11-10T21:02:35.439Z,9.10
2022-11-10T21:05:21.064Z,9.10
2022-11-10T21:08:06.557Z,9.10
2022-11-10T21:10:58.102Z,9.10
2022-11-10T21:13:43.396Z,9.10
2022-11-10T21:16:28.943Z,9.20
2022-11-10T21:19:14.593Z,9.20
2022-11-10T21:22:00.632Z,9.20
2022-11-10T21:24:46.313Z,9.20
2022-11-10T21:27:31.863Z,9.20
2022-11-10T21:30:22.969Z,9.20
2022-11-10T21:33:09.436Z,9.20
2022-11-10T21:35:55.398Z,9.20
2022-11-10T21:38:42.356Z,9.20
2022-11-10T21:41:28.053Z,9.20
2022-11-10T21:44:13.798Z,9.30
2022-11-10T21:46:59.281Z,9.20
2022-11-10T21:49:51.068Z,9.20
2022-11-10T21:52:37.164Z,9.20
2022-11-10T21:55:22.867Z,9.20
2022-11-10T21:58:08.606Z,9.10
2022-11-10T22:01:10.546Z,9.10
2022-11-10T22:03:56.528Z,9.10
2022-11-10T22:07:00.403Z,9.10
2022-11-10T22:10:04.843Z,9.20
2022-11-10T22:13:09.469Z,9.20
2022-11-10T22:16:14.220Z,9.20
2022-11-10T22:18:59.782Z,9.20
2022-11-10T22:21:45.419Z,9.20
2022-11-10T22:24:30.957Z,9.20
2022-11-10T22:27:17.005Z,9.20
2022-11-10T22:30:02.412Z,9.20
2022-11-10T22:32:48.067Z,9.20
2022-11-10T22:35:43.211Z,9.20
2022-11-10T22:38:36.739Z,9.10
2022-11-10T22:41:41.638Z,9.10
2022-11-10T22:44:27.711Z,9.10
2022-11-10T22:47:13.200Z,9.10
2022-11-10T22:49:59.413Z,9.10
2022-11-10T22:52:45.189Z,9.10
2022-11-10T22:55:31.179Z,9.10
2022-11-10T22:58:16.763Z,9.10
2022-11-10T23:01:08.776Z,9.10
2022-11-10T23:03:58.300Z,9.10
2022-11-10T23:06:44.334Z,9.20
2022-11-10T23:09:30.254Z,9.20
2022-11-10T23:12:16.988Z,9.10
2022-11-10T23:15:02.444Z,9.10
2022-11-10T23:17:48.447Z,9.10
2022-11-10T23:20:33.994Z,9.10
2022-11-10T23:23:19.505Z,9.00
2022-11-10T23:26:14.785Z,9.00
2022-11-10T23:29:00.596Z,8.90
2022-11-10T23:31:46.092Z,8.90
2022-11-10T23:34:31.782Z,8.90
2022-11-10T23:37:17.834Z,8.80
2022-11-10T23:40:03.631Z,8.80
2022-11-10T23:42:49.441Z,8.70
2022-11-10T23:46:05.482Z,8.70
2022-11-10T23:48:43.606Z,8.60
2022-11-10T23:51:29.128Z,8.50
2022-11-10T23:54:14.670Z,8.50
2022-11-10T23:57:00.322Z,8.40
2022-11-10T23:59:45.945Z,8.50
